Pinchbeck, United Kingdom
Current Conditions -  °F | °C
As of 2:50 AM on Friday 19 Dec 2014 (Local Time) from EGXT Reporting Station
Heavy Rain Heavy Rain  
Wind Chill: 42°   Ceiling: 1500
Heat Index: 48°   Visibility: 1.1mi
Dew Point: 46°   Wind: 17mph
Humidity: 93%   Direction: 300°WNW
Pressure: 29.68"   Gusts: NA
Location:  52.81°N, 0.16°W
Report Text: EGXT 190250Z AUTO 30015KT 1800 +RA BKN015/// SCT060/// 09/08 Q1005
Loading
Personal Weather Stations






























Interactive Weather Map New forecast layout! Learn more

10-Day Weather Forecast

Advertisements
Track Severe Weather on mobile